createdAt,value
2019-06-26T19:48:57.444Z,43.13
2019-06-26T19:50:26.353Z,43.56
2019-06-26T19:51:58.577Z,43.38
2019-06-26T19:54:50.525Z,43.13
2019-06-26T19:56:22.516Z,43.06
2019-06-26T19:57:54.508Z,42.81
2019-06-26T19:59:26.477Z,42.63
2019-06-26T20:00:58.456Z,42.56
2019-06-26T20:02:30.458Z,42.50
2019-06-26T20:04:02.446Z,42.50
2019-06-26T20:05:34.495Z,42.25
2019-06-26T20:07:06.489Z,42.19
2019-06-26T20:09:25.120Z,42.13
2019-06-26T20:11:10.519Z,42.31
2019-06-26T20:12:55.931Z,42.19
2019-06-26T20:27:14.666Z,40.69
2019-06-26T20:29:00.058Z,41.69
2019-06-26T20:30:45.402Z,41.88
2019-06-26T20:32:30.720Z,42.00
2019-06-26T20:34:15.992Z,42.13
2019-06-26T20:36:01.303Z,42.19
2019-06-26T20:37:46.641Z,42.25
2019-06-26T20:39:31.939Z,42.19
2019-06-26T20:41:17.249Z,42.25
2019-06-26T20:43:02.582Z,42.19
2019-06-26T20:44:47.959Z,42.25
2019-06-26T20:47:29.824Z,42.19
2019-06-26T20:49:15.136Z,42.50
2019-06-26T20:51:00.451Z,42.31
2019-06-26T20:52:45.778Z,42.31
2019-06-26T20:54:31.115Z,42.13
2019-06-26T20:56:16.442Z,42.06
2019-06-26T20:58:01.754Z,42.06
2019-06-26T20:59:47.047Z,42.06
2019-06-26T21:01:32.317Z,42.00
2019-06-26T21:06:10.370Z,38.75
2019-06-26T21:07:32.927Z,40.88
2019-06-26T21:09:18.290Z,41.44
2019-06-26T21:30:51.964Z,39.13
2019-06-26T21:32:37.288Z,40.25
2019-06-26T21:34:22.644Z,40.56
2019-06-26T21:36:07.977Z,40.75
2019-06-26T21:37:53.336Z,40.94
2019-06-26T21:39:38.728Z,41.13
2019-06-26T21:41:24.206Z,41.25
2019-06-26T21:43:09.544Z,41.38
2019-06-26T21:44:54.887Z,41.56
2019-06-26T21:48:27.588Z,39.75
2019-06-26T21:50:12.950Z,39.75
2019-06-26T21:51:58.306Z,40.06
2019-06-26T21:53:43.666Z,39.94
2019-06-26T21:55:34.420Z,40.50
2019-06-26T21:57:14.335Z,40.25
2019-06-26T21:58:59.703Z,39.56
2019-06-26T22:00:45.055Z,39.06
2019-06-26T22:02:30.428Z,38.94
2019-06-26T22:04:15.787Z,38.94
2019-06-26T22:06:01.170Z,38.88
2019-06-26T22:07:46.554Z,38.81
2019-06-26T22:09:31.946Z,38.69
2019-06-26T22:11:17.337Z,38.50
2019-06-26T22:13:02.717Z,38.56
2019-06-26T22:14:48.141Z,38.50
2019-06-26T22:16:33.534Z,38.50
2019-06-26T22:18:18.928Z,38.56
2019-06-26T22:20:07.961Z,38.56
2019-06-26T22:21:49.487Z,39.63
2019-06-26T22:23:34.858Z,40.19
2019-06-26T22:25:20.267Z,40.50
2019-06-26T22:27:05.643Z,39.75
2019-06-26T22:28:51.023Z,39.19
2019-06-26T22:30:36.390Z,38.94
2019-06-26T22:32:21.762Z,38.81
2019-06-26T22:34:07.167Z,38.63
2019-06-26T22:35:52.534Z,38.44
2019-06-26T22:37:37.917Z,38.38
2019-06-26T22:39:23.369Z,38.25
2019-06-26T22:41:08.674Z,38.31
2019-06-26T22:42:54.065Z,38.31
2019-06-26T22:44:39.484Z,39.13
2019-06-26T22:46:24.890Z,39.88
2019-06-26T22:48:10.301Z,39.00
2019-06-26T22:49:55.723Z,38.50
2019-06-26T22:51:41.153Z,38.38
2019-06-26T22:53:26.563Z,38.31
2019-06-26T22:55:11.965Z,38.38
2019-06-26T22:56:57.362Z,38.25
2019-06-26T22:58:42.758Z,38.38
2019-06-26T23:00:28.163Z,38.25
2019-06-26T23:02:13.586Z,38.06
2019-06-26T23:03:59.007Z,38.13
2019-06-26T23:05:44.438Z,38.06
2019-06-26T23:07:29.862Z,38.19
2019-06-26T23:09:15.258Z,38.25
2019-06-26T23:11:00.654Z,38.19
2019-06-26T23:12:46.065Z,38.19
2019-06-26T23:14:31.483Z,38.13
2019-06-26T23:16:16.919Z,38.06
2019-06-26T23:18:02.323Z,38.13
2019-06-26T23:19:47.722Z,38.25
2019-06-26T23:21:33.107Z,38.31
2019-06-26T23:23:18.517Z,38.31
2019-06-26T23:25:03.953Z,38.19
2019-06-26T23:26:49.363Z,38.25
2019-06-26T23:28:34.769Z,38.19
2019-06-26T23:30:20.178Z,38.13
2019-06-26T23:32:05.574Z,39.00
2019-06-26T23:33:50.970Z,39.19
2019-06-26T23:35:36.355Z,38.69
2019-06-26T23:37:21.755Z,38.56
2019-06-26T23:39:07.157Z,38.38
2019-06-26T23:40:52.557Z,38.19
2019-06-26T23:42:37.961Z,38.25
2019-06-26T23:44:23.383Z,38.38
2019-06-26T23:46:08.793Z,38.19
2019-06-26T23:47:54.200Z,38.38
2019-06-26T23:49:39.604Z,38.38
2019-06-26T23:51:25.068Z,38.31
2019-06-26T23:53:10.448Z,38.13
2019-06-26T23:54:55.868Z,38.25
2019-06-26T23:56:41.281Z,38.25
2019-06-26T23:58:26.694Z,38.19
